Time;durP1;ratioP1;P1;durP2;ratioP2;P2;SDS_P1;SDS_P2;PMS_P1;PMS_P2;Temp;Humidity;BMP_temperature;BMP_pressure;BME280_temperature;BME280_humidity;BME280_pressure;Samples;Min_cycle;Max_cycle;Signal;HPM_P1;HPM_P2
2023/01/18 00:04:42;;;;;;;1999.90;999.90;;;;;;;-0.80;100.00;99026.63;10497967;28;20045;-65
2023/01/18 00:09:44;;;;;;;1999.90;999.90;;;;;;;-0.72;100.00;99034.03;10480133;28;20045;-65
2023/01/18 00:14:47;;;;;;;1999.90;999.90;;;;;;;-0.60;100.00;99032.72;10495694;28;20063;-65
2023/01/18 00:19:49;;;;;;;1999.90;999.90;;;;;;;-0.62;100.00;99026.81;10494725;28;20499;-65
2023/01/18 00:24:51;;;;;;;1999.90;999.90;;;;;;;-0.59;100.00;99024.94;10479207;28;20411;-65
2023/01/18 00:29:54;;;;;;;1999.90;999.90;;;;;;;-0.66;100.00;99033.78;10505520;28;20040;-65
2023/01/18 00:34:56;;;;;;;1999.90;999.90;;;;;;;-0.41;99.38;99035.38;10503308;28;20048;-65
2023/01/18 00:39:58;;;;;;;1999.90;999.90;;;;;;;-0.62;100.00;99034.53;10485514;28;20086;-65
2023/01/18 00:45:01;;;;;;;1999.90;999.90;;;;;;;-0.60;100.00;99033.53;10504336;28;20044;-65
2023/01/18 00:50:04;;;;;;;1999.90;999.90;;;;;;;-0.55;100.00;99033.38;10504395;28;20053;-65
2023/01/18 00:55:07;;;;;;;1999.90;999.90;;;;;;;-0.30;99.87;99034.94;10487414;28;20060;-65
2023/01/18 01:00:14;;;;;;;1999.90;999.90;;;;;;;-0.41;99.84;99038.78;10501502;28;20048;-65
2023/01/18 01:10:39;;;;;;;1999.90;999.90;;;;;;;-0.24;96.94;99038.09;10503946;28;20050;-65
2023/01/18 01:26:26;;;;;;;1999.90;999.90;;;;;;;-0.15;97.12;99042.03;10486668;28;20052;-65
2023/01/18 01:31:28;;;;;;;1999.90;999.90;;;;;;;-0.42;97.74;99041.41;10502512;28;20404;-65
2023/01/18 01:36:30;;;;;;;1999.90;999.90;;;;;;;-0.30;98.87;99045.22;10500627;28;20048;-65
2023/01/18 01:41:33;;;;;;;1999.90;999.90;;;;;;;-0.58;99.40;99054.06;10499569;28;20117;-65
2023/01/18 01:46:58;;;;;;;1999.90;999.90;;;;;;;-0.50;98.22;99059.72;10500899;28;20052;-65
2023/01/18 01:52:07;;;;;;;1999.90;999.90;;;;;;;-0.44;98.25;99062.06;10443088;28;20431;-65
2023/01/18 01:57:19;;;;;;;1999.90;999.90;;;;;;;-0.43;99.05;99061.16;10462191;28;20061;-65
2023/01/18 02:02:21;;;;;;;1999.90;999.90;;;;;;;-0.57;100.00;99064.28;10460397;28;20094;-65
2023/01/18 02:07:25;;;;;;;1999.90;999.90;;;;;;;-0.72;100.00;99064.88;10481930;28;20513;-65
2023/01/18 02:12:28;;;;;;;1999.90;999.90;;;;;;;-0.66;100.00;99067.19;10482804;28;20446;-65
2023/01/18 02:18:06;;;;;;;1999.90;999.90;;;;;;;-0.78;100.00;99075.38;10479787;28;20056;-65
2023/01/18 02:23:57;;;;;;;1999.90;999.90;;;;;;;-0.55;100.00;99074.50;10442710;28;20086;-65
2023/01/18 02:29:16;;;;;;;1999.90;999.90;;;;;;;-0.67;100.00;99077.53;10471286;28;20048;-65
2023/01/18 02:34:37;;;;;;;1999.90;999.90;;;;;;;-0.75;100.00;99081.25;10482314;28;20053;-65
2023/01/18 02:40:01;;;;;;;1999.90;999.90;;;;;;;-0.65;100.00;99089.44;10496748;28;20049;-65
2023/01/18 02:50:48;;;;;;;1999.90;999.90;;;;;;;-0.64;100.00;99101.41;10487401;28;20181;-66
2023/01/18 02:56:20;;;;;;;1999.90;999.90;;;;;;;-0.59;100.00;99102.06;10480422;28;20052;-65
2023/01/18 03:01:32;;;;;;;1999.90;999.90;;;;;;;-0.61;100.00;99097.88;10480080;28;20125;-65
2023/01/18 03:06:35;;;;;;;1999.90;999.90;;;;;;;-0.89;100.00;99093.81;10469897;28;20056;-65
2023/01/18 03:11:49;;;;;;;1999.90;999.90;;;;;;;-0.96;100.00;99100.03;10481456;28;20059;-65
2023/01/18 03:17:03;;;;;;;1999.90;999.90;;;;;;;-1.00;100.00;99103.63;10496403;28;20056;-65
2023/01/18 03:22:06;;;;;;;1999.90;999.90;;;;;;;-1.06;100.00;99108.97;10497981;28;20052;-65
2023/01/18 03:37:54;;;;;;;1999.90;999.90;;;;;;;-0.73;100.00;99106.88;10475296;28;20098;-65
2023/01/18 03:43:13;;;;;;;1999.90;999.90;;;;;;;-0.85;100.00;99110.75;10480536;28;20458;-65
2023/01/18 03:48:15;;;;;;;1999.90;999.90;;;;;;;-0.83;100.00;99115.84;10479956;28;20045;-65
2023/01/18 03:53:37;;;;;;;1999.90;999.90;;;;;;;-0.69;100.00;99115.31;10477419;28;20722;-65
2023/01/18 03:58:41;;;;;;;1999.90;999.90;;;;;;;-0.79;100.00;99128.53;10476945;28;20052;-65
2023/01/18 04:03:43;;;;;;;1999.90;999.90;;;;;;;-0.85;100.00;99136.47;10486942;28;20052;-65
2023/01/18 04:08:45;;;;;;;1999.90;999.90;;;;;;;-1.44;100.00;99152.28;10503448;28;20060;-66
2023/01/18 04:13:48;;;;;;;1999.90;999.90;;;;;;;-1.39;100.00;99158.09;10487066;28;20442;-65
2023/01/18 04:18:51;;;;;;;1999.90;999.90;;;;;;;-1.26;100.00;99161.06;10504671;28;20450;-65
2023/01/18 04:23:53;;;;;;;1999.90;999.90;;;;;;;-1.20;100.00;99163.44;10505902;28;20051;-65
2023/01/18 04:28:56;;;;;;;1999.90;999.90;;;;;;;-1.01;100.00;99154.19;10486666;28;20045;-65
2023/01/18 04:33:58;;;;;;;1999.90;999.90;;;;;;;-1.09;100.00;99150.19;10504316;28;20101;-65
2023/01/18 04:39:00;;;;;;;1999.90;999.90;;;;;;;-1.15;100.00;99146.94;10502637;28;20055;-65
2023/01/18 04:44:03;;;;;;;1999.90;999.90;;;;;;;-1.11;100.00;99160.50;10504997;28;20045;-65
2023/01/18 04:49:08;;;;;;;1999.90;999.90;;;;;;;-1.11;100.00;99168.22;10502926;28;20105;-65
2023/01/18 04:54:13;;;;;;;1999.90;999.90;;;;;;;-1.01;100.00;99167.03;10485350;28;20560;-65
2023/01/18 04:59:15;;;;;;;1999.90;999.90;;;;;;;-1.01;100.00;99176.44;10502851;28;20522;-66
2023/01/18 05:04:18;;;;;;;1999.90;999.90;;;;;;;-1.17;100.00;99169.28;10516293;22;20064;-68
2023/01/18 05:09:20;;;;;;;1999.90;999.90;;;;;;;-1.17;100.00;99184.69;10484770;28;20081;-68
2023/01/18 05:14:22;;;;;;;1999.90;999.90;;;;;;;-1.26;100.00;99192.75;10500069;28;20052;-67
2023/01/18 05:19:29;;;;;;;1999.90;999.90;;;;;;;-1.19;100.00;99183.09;10484134;28;20090;-68
2023/01/18 05:24:31;;;;;;;1999.90;999.90;;;;;;;-1.40;100.00;99190.63;10503667;28;20048;-67
2023/01/18 05:29:33;;;;;;;1999.90;999.90;;;;;;;-1.33;100.00;99201.53;10497410;28;20155;-67
2023/01/18 05:34:36;;;;;;;1999.90;999.90;;;;;;;-1.72;100.00;99212.22;10484627;28;20048;-68
2023/01/18 05:39:38;;;;;;;1999.90;999.90;;;;;;;-1.53;100.00;99207.31;10499705;28;20059;-68
2023/01/18 05:44:40;;;;;;;1999.90;999.90;;;;;;;-1.77;100.00;99216.66;10485051;28;20052;-68
2023/01/18 05:49:43;;;;;;;1999.90;999.90;;;;;;;-1.65;100.00;99218.84;10501112;28;20488;-67
2023/01/18 05:54:45;;;;;;;1999.90;999.90;;;;;;;-1.91;100.00;99227.38;10484160;28;20514;-68
2023/01/18 05:59:47;;;;;;;1999.90;999.90;;;;;;;-1.77;100.00;99232.06;10481100;28;20402;-67
2023/01/18 06:04:50;;;;;;;1999.90;999.90;;;;;;;-1.92;100.00;99249.59;10500118;28;20053;-67
2023/01/18 06:09:52;;;;;;;1999.90;999.90;;;;;;;-2.01;100.00;99242.22;10501242;28;20110;-68
2023/01/18 06:14:54;;;;;;;1999.90;999.90;;;;;;;-2.03;100.00;99250.81;10501506;28;20052;-68
2023/01/18 06:19:57;;;;;;;1999.90;999.90;;;;;;;-2.19;100.00;99263.28;10480200;28;20052;-68
2023/01/18 06:24:59;;;;;;;1999.90;999.90;;;;;;;-2.14;100.00;99272.50;10499145;28;20078;-68
2023/01/18 06:30:03;;;;;;;1999.90;999.90;;;;;;;-2.13;100.00;99275.94;10498821;28;20052;-68
2023/01/18 06:35:06;;;;;;;1999.90;999.90;;;;;;;-2.26;100.00;99273.72;10501731;28;20057;-68
2023/01/18 06:40:09;;;;;;;1999.90;999.90;;;;;;;-2.35;100.00;99285.97;10479897;28;20048;-67
2023/01/18 06:45:12;;;;;;;1999.90;999.90;;;;;;;-2.31;100.00;99282.44;10500302;28;20052;-68
2023/01/18 06:50:15;;;;;;;1999.90;999.90;;;;;;;-2.05;100.00;99294.50;10446708;28;20045;-67
2023/01/18 06:55:18;;;;;;;1999.90;999.90;;;;;;;-1.97;100.00;99299.38;10440930;28;20132;-66
2023/01/18 07:00:21;;;;;;;1999.90;999.90;;;;;;;-1.86;100.00;99307.59;10490954;28;20055;-68
2023/01/18 07:05:23;;;;;;;1999.90;999.90;;;;;;;-1.66;100.00;99304.44;10496486;28;20495;-67
2023/01/18 07:10:26;;;;;;;1999.90;999.90;;;;;;;-1.65;100.00;99313.78;10427373;28;20511;-67
2023/01/18 07:15:28;;;;;;;1999.90;999.90;;;;;;;-1.63;100.00;99322.31;10487583;28;20102;-66
2023/01/18 07:20:30;;;;;;;1999.90;999.90;;;;;;;-1.48;100.00;99332.97;10496501;28;20057;-66
2023/01/18 07:25:33;;;;;;;1999.90;999.90;;;;;;;-1.48;100.00;99338.09;10497796;28;20101;-66
2023/01/18 07:30:35;;;;;;;1999.90;999.90;;;;;;;-1.81;100.00;99343.38;10498661;28;20059;-67
2023/01/18 07:35:38;;;;;;;1999.90;999.90;;;;;;;-1.54;100.00;99339.97;10497228;28;20048;-67
2023/01/18 07:40:40;;;;;;;1999.90;999.90;;;;;;;-1.54;100.00;99352.81;10508862;28;20052;-67
2023/01/18 07:45:44;;;;;;;1999.90;999.90;;;;;;;-1.56;100.00;99349.44;10501206;28;20058;-67
2023/01/18 07:51:01;;;;;;;1999.90;999.90;;;;;;;-1.84;100.00;99357.13;10480733;28;20109;-67
2023/01/18 07:56:10;;;;;;;1999.90;999.90;;;;;;;-1.51;100.00;99367.28;10497595;28;20381;-67
2023/01/18 08:01:14;;;;;;;1999.90;999.90;;;;;;;-1.48;100.00;99374.03;10484490;28;20045;-67
2023/01/18 08:06:26;;;;;;;1999.90;999.90;;;;;;;-1.57;100.00;99368.28;10439063;28;20049;-68
2023/01/18 08:11:29;;;;;;;1999.90;999.90;;;;;;;-1.50;100.00;99376.66;10446168;28;20049;-67
2023/01/18 08:16:31;;;;;;;1999.90;999.90;;;;;;;-1.19;100.00;99384.25;10495091;28;20094;-65
2023/01/18 08:21:33;;;;;;;1999.90;999.90;;;;;;;-1.17;100.00;99387.59;10495722;28;20044;-65
2023/01/18 08:26:36;;;;;;;1999.90;999.90;;;;;;;-0.97;100.00;99397.25;10497001;28;20514;-65
2023/01/18 08:31:39;;;;;;;1999.90;999.90;;;;;;;-1.02;100.00;99396.56;10496793;28;20044;-65
2023/01/18 08:36:41;;;;;;;1999.90;999.90;;;;;;;-0.91;100.00;99396.19;10478492;28;20055;-65
2023/01/18 08:41:45;;;;;;;1999.90;999.90;;;;;;;-0.83;100.00;99404.50;10495253;28;20513;-66
2023/01/18 08:46:48;;;;;;;1999.90;999.90;;;;;;;-0.65;100.00;99408.19;10494245;28;20114;-65
2023/01/18 08:51:51;;;;;;;1999.90;999.90;;;;;;;-0.56;100.00;99401.91;10503639;28;20040;-65
2023/01/18 08:56:53;;;;;;;1999.90;999.90;;;;;;;-0.49;100.00;99413.63;10497257;28;20048;-65
2023/01/18 09:01:56;;;;;;;1999.90;999.90;;;;;;;-0.34;100.00;99422.56;10504421;28;20055;-65
2023/01/18 09:06:58;;;;;;;1999.90;999.90;;;;;;;-0.19;100.00;99424.59;10503862;28;20396;-65
2023/01/18 09:12:01;;;;;;;1999.90;999.90;;;;;;;-0.21;99.36;99422.97;10503334;28;20422;-65
2023/01/18 09:17:03;;;;;;;1999.90;999.90;;;;;;;0.09;99.14;99433.09;10503889;28;20106;-65
2023/01/18 09:22:06;;;;;;;1999.90;999.90;;;;;;;3.35;87.22;99441.63;10503029;28;20514;-65
2023/01/18 09:27:08;;;;;;;1999.90;999.90;;;;;;;4.33;76.67;99443.53;10502952;28;20510;-65
2023/01/18 09:32:10;;;;;;;1999.90;999.90;;;;;;;4.34;79.45;99460.75;10485497;28;20052;-66
2023/01/18 09:37:13;;;;;;;1999.90;999.90;;;;;;;6.73;80.46;99462.63;10502555;28;20555;-66
2023/01/18 09:42:24;;;;;;;1999.90;999.90;;;;;;;7.43;72.94;99459.03;10497948;28;20496;-66
2023/01/18 09:47:33;;;;;;;1999.90;999.90;;;;;;;4.85;79.29;99476.19;10482522;28;20056;-66
2023/01/18 09:52:57;;;;;;;1999.90;999.90;;;;;;;7.36;82.46;99478.59;10485727;28;20076;-66
2023/01/18 09:58:27;;;;;;;1999.90;999.90;;;;;;;8.66;69.95;99475.97;10479317;28;20056;-66
2023/01/18 10:03:42;;;;;;;1999.90;999.90;;;;;;;8.27;69.54;99486.44;10476806;28;20045;-67
2023/01/18 10:08:58;;;;;;;1999.90;999.90;;;;;;;6.39;68.46;99495.06;10491173;28;20064;-67
2023/01/18 10:14:05;;;;;;;1999.90;999.90;;;;;;;5.93;70.92;99496.88;10481246;28;20037;-67
2023/01/18 10:19:19;;;;;;;1999.90;999.90;;;;;;;5.54;74.02;99503.44;10495902;28;20094;-67
2023/01/18 10:24:34;;;;;;;1999.90;999.90;;;;;;;6.29;70.78;99506.03;10508159;28;20047;-67
2023/01/18 10:30:01;;;;;;;1999.90;999.90;;;;;;;3.44;77.43;99507.59;10501873;28;20048;-66
2023/01/18 10:35:25;;;;;;;1999.90;999.90;;;;;;;3.10;79.29;99506.63;10500738;28;20044;-66
2023/01/18 10:40:28;;;;;;;1999.90;999.90;;;;;;;3.27;79.81;99506.66;10483117;28;20063;-66
2023/01/18 10:45:33;;;;;;;1999.90;999.90;;;;;;;2.84;80.19;99510.41;10465580;28;20091;-66
2023/01/18 10:50:38;;;;;;;1999.90;999.90;;;;;;;2.26;81.93;99506.97;10500125;28;20055;-66
2023/01/18 10:55:43;;;;;;;1999.90;999.90;;;;;;;2.56;82.39;99512.53;10499344;28;20510;-67
2023/01/18 11:00:53;;;;;;;1999.90;999.90;;;;;;;2.58;84.13;99513.28;10482275;28;20052;-66
2023/01/18 11:06:04;;;;;;;1999.90;999.90;;;;;;;2.83;83.43;99513.94;10481796;28;20160;-67
2023/01/18 11:17:01;;;;;;;1999.90;999.90;;;;;;;2.70;84.77;99509.31;10499277;28;20045;-66
2023/01/18 11:22:26;;;;;;;1999.90;999.90;;;;;;;3.57;82.71;99503.50;10481404;28;20051;-66
2023/01/18 11:27:31;;;;;;;1999.90;999.90;;;;;;;3.05;83.58;99511.19;10480635;28;20462;-66
2023/01/18 11:32:33;;;;;;;1999.90;999.90;;;;;;;2.82;83.96;99522.59;10480963;28;20483;-66
2023/01/18 11:37:38;;;;;;;1999.90;999.90;;;;;;;2.62;84.63;99506.22;10498683;28;20052;-66
2023/01/18 11:42:40;;;;;;;1999.90;999.90;;;;;;;2.35;86.63;99511.72;10480815;28;20064;-66
2023/01/18 11:47:56;;;;;;;1999.90;999.90;;;;;;;3.14;85.74;99510.75;10498442;28;20055;-66
2023/01/18 11:53:37;;;;;;;1999.90;999.90;;;;;;;3.67;83.95;99514.25;10479963;28;20118;-66
2023/01/18 11:58:40;;;;;;;1999.90;999.90;;;;;;;2.44;85.11;99517.38;10498226;28;20079;-67
2023/01/18 12:03:56;;;;;;;1999.90;999.90;;;;;;;2.72;86.08;99529.91;10480325;28;20044;-67
2023/01/18 12:09:24;;;;;;;1999.90;999.90;;;;;;;4.15;80.06;99523.03;10454628;28;20087;-66
2023/01/18 12:14:46;;;;;;;1999.90;999.90;;;;;;;3.11;83.51;99526.41;10454654;28;20049;-66
2023/01/18 12:19:52;;;;;;;1999.90;999.90;;;;;;;2.63;86.66;99541.50;10455771;28;20060;-67
2023/01/18 12:25:23;;;;;;;1999.90;999.90;;;;;;;2.89;86.19;99537.75;10461528;28;20048;-67
2023/01/18 12:30:43;;;;;;;1999.90;999.90;;;;;;;2.93;86.98;99541.03;10462591;28;20103;-67
2023/01/18 12:36:11;;;;;;;1999.90;999.90;;;;;;;2.83;87.55;99540.63;10422279;28;20489;-67
2023/01/18 12:41:34;;;;;;;1999.90;999.90;;;;;;;2.83;88.58;99545.78;10426574;28;20045;-68
2023/01/18 12:47:00;;;;;;;1999.90;999.90;;;;;;;2.56;89.15;99543.53;10446137;28;20052;-67
2023/01/18 12:52:04;;;;;;;1999.90;999.90;;;;;;;2.64;89.76;99552.69;10461647;28;20052;-67
2023/01/18 12:57:21;;;;;;;1999.90;999.90;;;;;;;2.33;90.82;99551.44;10461832;28;20052;-67
2023/01/18 13:02:38;;;;;;;1999.90;999.90;;;;;;;2.50;91.29;99555.88;10462468;28;20045;-67
2023/01/18 13:07:50;;;;;;;1999.90;999.90;;;;;;;2.74;89.65;99544.47;10444650;28;20063;-67
2023/01/18 13:12:54;;;;;;;1999.90;999.90;;;;;;;2.60;90.11;99550.22;10461985;28;20041;-67
2023/01/18 13:18:16;;;;;;;1999.90;999.90;;;;;;;2.61;90.41;99538.16;10460749;28;20431;-67
2023/01/18 13:23:28;;;;;;;1999.90;999.90;;;;;;;2.46;90.90;99544.84;10462287;28;20056;-67
2023/01/18 13:28:30;;;;;;;;;;;;;;;2.81;89.65;99549.34;10461462;28;20057;-67
2023/01/18 13:33:36;;;;;;;;;;;;;;;2.94;87.04;99559.06;10460438;28;19920;-67
2023/01/18 13:39:00;;;;;;;1999.90;999.90;;;;;;;3.16;85.46;99566.69;10444729;28;20000;-67
2023/01/18 13:44:23;;;;;;;1999.90;999.90;;;;;;;2.73;88.34;99563.44;10441001;28;20436;-67
2023/01/18 13:49:33;;;;;;;1999.90;999.90;;;;;;;2.79;88.33;99568.34;10456011;28;20078;-67
2023/01/18 13:54:45;;;;;;;1999.90;999.90;;;;;;;2.79;87.75;99570.94;10456097;28;20049;-67
2023/01/18 13:59:50;;;;;;;1999.90;999.90;;;;;;;2.68;88.60;99567.97;10457401;28;20053;-67
2023/01/18 14:05:15;;;;;;;1999.90;999.90;;;;;;;2.65;89.31;99560.38;10462449;28;20126;-67
2023/01/18 14:10:35;;;;;;;1999.90;999.90;;;;;;;2.68;89.95;99564.56;10478392;28;20075;-67
2023/01/18 14:15:52;;;;;;;1999.90;999.90;;;;;;;2.85;88.58;99568.97;10460649;28;20063;-68
2023/01/18 14:21:07;;;;;;;1999.90;999.90;;;;;;;2.75;88.81;99576.31;10460304;28;20144;-68
2023/01/18 14:26:13;;;;;;;1999.90;999.90;;;;;;;2.79;89.02;99572.66;10470334;28;20048;-67
2023/01/18 14:31:54;;;;;;;1999.90;999.90;;;;;;;2.69;89.15;99574.84;10433236;28;20060;-67
2023/01/18 14:36:57;;;;;;;1999.90;999.90;;;;;;;2.60;89.47;99580.41;10508812;28;20125;-67
2023/01/18 14:42:03;;;;;;;1999.90;999.90;;;;;;;2.70;88.81;99593.75;10502793;28;20048;-67
2023/01/18 14:47:14;;;;;;;1999.90;999.90;;;;;;;2.69;89.81;99589.50;10446207;28;20053;-67
2023/01/18 14:52:29;;;;;;;1999.90;999.90;;;;;;;2.78;87.62;99596.84;10457303;28;20055;-67
2023/01/18 14:57:32;;;;;;;1999.90;999.90;;;;;;;2.67;88.44;99602.47;10480463;28;20057;-67
2023/01/18 15:02:37;;;;;;;1999.90;999.90;;;;;;;2.56;88.42;99605.53;10497968;28;20055;-67
2023/01/18 15:07:40;;;;;;;1999.90;999.90;;;;;;;2.54;88.35;99617.69;10477510;28;20522;-68
2023/01/18 15:12:48;;;;;;;1999.90;999.90;;;;;;;2.59;88.77;99627.84;10446364;28;20053;-68
2023/01/18 15:17:51;;;;;;;1999.90;999.90;;;;;;;2.23;90.18;99629.31;10473984;28;20102;-68
2023/01/18 15:22:53;;;;;;;1999.90;999.90;;;;;;;2.38;88.28;99627.84;10460361;28;20064;-68
2023/01/18 15:28:00;;;;;;;1999.90;999.90;;;;;;;2.49;87.71;99624.81;10479258;28;20049;-68
2023/01/18 15:33:22;;;;;;;1999.90;999.90;;;;;;;2.35;88.33;99634.88;10483542;28;20051;-68
2023/01/18 15:38:25;;;;;;;1999.90;999.90;;;;;;;2.38;88.93;99639.91;10478393;28;20097;-68
2023/01/18 15:43:32;;;;;;;1999.90;999.90;;;;;;;2.41;88.32;99634.63;10480646;28;20057;-68
2023/01/18 15:49:04;;;;;;;1999.90;999.90;;;;;;;2.30;88.79;99641.97;10497957;28;20049;-68
2023/01/18 15:54:07;;;;;;;1999.90;999.90;;;;;;;2.17;88.70;99650.25;10495244;28;20114;-68
2023/01/18 15:59:09;;;;;;;1999.90;999.90;;;;;;;2.15;90.52;99648.59;10479755;28;20052;-68
2023/01/18 16:04:12;;;;;;;1999.90;999.90;;;;;;;2.13;89.34;99643.50;10480863;28;20048;-68
2023/01/18 16:09:14;;;;;;;1999.90;999.90;;;;;;;1.95;90.25;99657.16;10497820;28;20404;-69
2023/01/18 16:14:27;;;;;;;1999.90;999.90;;;;;;;2.06;88.64;99659.31;10497884;28;20059;-69
2023/01/18 16:19:42;;;;;;;1999.90;999.90;;;;;;;1.81;90.08;99655.97;10497244;28;20586;-68
2023/01/18 16:24:55;;;;;;;1999.90;999.90;;;;;;;1.98;90.33;99657.88;10497125;28;20518;-69
2023/01/18 16:30:16;;;;;;;1999.90;999.90;;;;;;;1.70;92.09;99659.88;10479933;28;20060;-68
2023/01/18 16:35:20;;;;;;;1999.90;999.90;;;;;;;1.70;93.26;99665.88;10479766;28;20045;-68
2023/01/18 16:40:23;;;;;;;1999.90;999.90;;;;;;;1.53;92.99;99671.69;10479046;28;20514;-68
2023/01/18 16:45:26;;;;;;;1999.90;999.90;;;;;;;1.63;93.97;99670.44;10478876;28;20442;-68
2023/01/18 16:50:28;;;;;;;1999.90;999.90;;;;;;;1.57;95.89;99670.66;10479485;28;20044;-68
2023/01/18 16:55:31;;;;;;;1999.90;999.90;;;;;;;1.62;95.59;99683.41;10496362;28;20055;-67
2023/01/18 17:00:56;;;;;;;1999.90;999.90;;;;;;;1.59;95.91;99686.09;10497015;28;20053;-67
2023/01/18 17:05:58;;;;;;;1999.90;999.90;;;;;;;1.52;97.33;99690.66;10478960;28;20045;-67
2023/01/18 17:11:01;;;;;;;1999.90;999.90;;;;;;;1.58;98.72;99694.72;10485312;28;20053;-67
2023/01/18 17:16:04;;;;;;;1999.90;999.90;;;;;;;1.45;99.73;99704.69;10503838;28;20395;-67
2023/01/18 17:21:08;;;;;;;1999.90;999.90;;;;;;;1.55;98.79;99712.94;10517440;22;20053;-67
2023/01/18 17:26:16;;;;;;;1999.90;999.90;;;;;;;1.54;100.00;99714.63;10486838;28;20048;-67
2023/01/18 17:31:19;;;;;;;1999.90;999.90;;;;;;;1.64;100.00;99713.41;10503602;28;20098;-67
2023/01/18 17:36:22;;;;;;;1999.90;999.90;;;;;;;1.70;100.00;99724.38;10484951;28;20041;-67
2023/01/18 17:41:25;;;;;;;1999.90;999.90;;;;;;;1.68;100.00;99727.00;10502585;28;20059;-67
2023/01/18 17:46:32;;;;;;;1999.90;999.90;;;;;;;1.69;100.00;99733.88;10502380;28;20491;-67
2023/01/18 17:51:34;;;;;;;1999.90;999.90;;;;;;;1.58;100.00;99742.03;10484428;28;20198;-67
2023/01/18 17:56:36;;;;;;;1999.90;999.90;;;;;;;1.73;100.00;99755.25;10502609;28;20060;-67
2023/01/18 18:01:38;;;;;;;1999.90;999.90;;;;;;;1.81;100.00;99755.78;10502440;28;20045;-67
2023/01/18 18:06:41;;;;;;;1999.90;999.90;;;;;;;1.85;100.00;99762.53;10501584;28;20564;-67
2023/01/18 18:11:55;;;;;;;1999.90;999.90;;;;;;;1.69;100.00;99767.41;10501400;28;20499;-67
2023/01/18 18:16:57;;;;;;;1999.90;999.90;;;;;;;1.85;100.00;99778.03;10484145;28;20052;-67
2023/01/18 18:22:00;;;;;;;1999.90;999.90;;;;;;;1.79;100.00;99776.50;10500645;28;20062;-67
2023/01/18 18:27:03;;;;;;;1999.90;999.90;;;;;;;1.86;100.00;99772.78;10483717;28;20130;-67
2023/01/18 18:32:06;;;;;;;1999.90;999.90;;;;;;;1.81;100.00;99774.69;10501089;28;20048;-67
2023/01/18 18:37:08;;;;;;;1999.90;999.90;;;;;;;1.75;100.00;99769.78;10482652;28;20376;-67
2023/01/18 18:42:11;;;;;;;1999.90;999.90;;;;;;;1.80;100.00;99770.44;10500643;28;20098;-67
2023/01/18 18:47:13;;;;;;;1999.90;999.90;;;;;;;1.89;100.00;99777.00;10500455;28;20048;-67
2023/01/18 18:52:15;;;;;;;1999.90;999.90;;;;;;;1.81;100.00;99779.03;10500049;28;20049;-67
2023/01/18 18:57:18;;;;;;;1999.90;999.90;;;;;;;1.81;100.00;99776.44;10500075;28;20072;-67
2023/01/18 19:02:20;;;;;;;1999.90;999.90;;;;;;;1.84;100.00;99784.91;10500786;28;20048;-67
2023/01/18 19:07:24;;;;;;;1999.90;999.90;;;;;;;1.89;100.00;99789.91;10499048;28;20052;-67
2023/01/18 19:12:26;;;;;;;1999.90;999.90;;;;;;;1.80;100.00;99803.13;10481816;28;20044;-67
2023/01/18 19:17:28;;;;;;;1999.90;999.90;;;;;;;1.93;100.00;99809.53;10499558;28;20044;-67
2023/01/18 19:22:35;;;;;;;1999.90;999.90;;;;;;;1.80;100.00;99816.03;10481680;28;20949;-67
2023/01/18 19:27:37;;;;;;;1999.90;999.90;;;;;;;1.79;100.00;99832.44;10498983;28;20059;-68
2023/01/18 19:32:40;;;;;;;1999.90;999.90;;;;;;;1.69;100.00;99824.19;10498990;28;20048;-67
2023/01/18 19:37:43;;;;;;;1999.90;999.90;;;;;;;1.75;100.00;99821.41;10498216;28;20056;-67
2023/01/18 19:42:53;;;;;;;1999.90;999.90;;;;;;;1.76;100.00;99825.63;10498113;28;20526;-67
2023/01/18 19:47:58;;;;;;;1999.90;999.90;;;;;;;1.80;100.00;99839.28;10482000;28;20102;-67
2023/01/18 19:53:02;;;;;;;1999.90;999.90;;;;;;;1.67;100.00;99836.31;10498423;28;20044;-68
2023/01/18 19:58:05;;;;;;;1999.90;999.90;;;;;;;1.67;100.00;99849.22;10480153;28;20408;-67
2023/01/18 20:03:10;;;;;;;1999.90;999.90;;;;;;;1.58;100.00;99837.50;10498172;28;20123;-67
2023/01/18 20:08:13;;;;;;;1999.90;999.90;;;;;;;1.64;100.00;99849.31;10480540;28;20080;-68
2023/01/18 20:13:15;;;;;;;1999.90;999.90;;;;;;;1.63;100.00;99835.59;10498159;28;20045;-67
2023/01/18 20:18:18;;;;;;;1999.90;999.90;;;;;;;1.56;100.00;99836.69;10497831;28;20052;-67
2023/01/18 20:23:20;;;;;;;1999.90;999.90;;;;;;;1.62;100.00;99841.63;10497866;28;20094;-67
2023/01/18 20:28:22;;;;;;;1999.90;999.90;;;;;;;1.42;100.00;99846.66;10497789;28;20048;-67
2023/01/18 20:33:25;;;;;;;1999.90;999.90;;;;;;;1.51;100.00;99853.22;10497597;28;20049;-67
2023/01/18 20:38:27;;;;;;;1999.90;999.90;;;;;;;1.44;100.00;99873.22;10479176;28;20060;-68
2023/01/18 20:43:29;;;;;;;1999.90;999.90;;;;;;;1.40;100.00;99872.50;10500077;28;20045;-67
2023/01/18 20:48:33;;;;;;;1999.90;999.90;;;;;;;1.35;100.00;99876.16;10504610;28;20483;-67
2023/01/18 20:53:38;;;;;;;1999.90;999.90;;;;;;;1.38;100.00;99884.63;10487238;28;20052;-67
2023/01/18 20:58:41;;;;;;;1999.90;999.90;;;;;;;1.33;100.00;99881.34;10504907;28;20055;-67
2023/01/18 21:03:44;;;;;;;1999.90;999.90;;;;;;;1.32;100.00;99894.28;10504642;28;20068;-67
2023/01/18 21:08:49;;;;;;;1999.90;999.90;;;;;;;1.27;100.00;99889.28;10486877;28;20052;-67
2023/01/18 21:13:53;;;;;;;1999.90;999.90;;;;;;;1.16;100.00;99894.81;10503586;28;20049;-67
2023/01/18 21:18:57;;;;;;;1999.90;999.90;;;;;;;1.19;100.00;99897.25;10503795;28;20109;-67
2023/01/18 21:24:00;;;;;;;1999.90;999.90;;;;;;;1.10;100.00;99906.16;10486460;28;20098;-67
2023/01/18 21:29:03;;;;;;;1999.90;999.90;;;;;;;1.18;100.00;99908.50;10486002;28;20049;-67
2023/01/18 21:34:06;;;;;;;1999.90;999.90;;;;;;;1.09;100.00;99909.63;10469259;28;20067;-67
2023/01/18 21:39:17;;;;;;;1999.90;999.90;;;;;;;1.18;100.00;99910.19;10503383;28;20052;-67
2023/01/18 21:55:19;;;;;;;1999.90;999.90;;;;;;;1.08;100.00;99917.41;10498275;28;20131;-67
2023/01/18 22:00:22;;;;;;;1999.90;999.90;;;;;;;1.03;100.00;99930.44;10499922;28;20052;-67
2023/01/18 22:05:25;;;;;;;1999.90;999.90;;;;;;;1.07;100.00;99931.19;10495629;28;20045;-68
2023/01/18 22:10:27;;;;;;;1999.90;999.90;;;;;;;0.99;100.00;99915.13;10501461;28;20048;-67
2023/01/18 22:15:29;;;;;;;1999.90;999.90;;;;;;;0.92;100.00;99917.91;10501788;28;20040;-68
2023/01/18 22:20:32;;;;;;;1999.90;999.90;;;;;;;0.88;100.00;99924.03;10500719;28;20056;-67
2023/01/18 22:25:34;;;;;;;1999.90;999.90;;;;;;;1.00;100.00;99934.88;10501480;28;20044;-67
2023/01/18 22:30:36;;;;;;;1999.90;999.90;;;;;;;0.92;100.00;99942.81;10501271;28;20056;-67
2023/01/18 22:35:39;;;;;;;1999.90;999.90;;;;;;;0.99;100.00;99948.63;10499575;28;20094;-67
2023/01/18 22:40:41;;;;;;;1999.90;999.90;;;;;;;1.06;100.00;99955.28;10500807;28;20056;-67
2023/01/18 22:45:53;;;;;;;1999.90;999.90;;;;;;;0.94;100.00;99946.19;10499713;28;20044;-67
2023/01/18 22:50:58;;;;;;;1999.90;999.90;;;;;;;1.09;100.00;99950.03;10498723;28;20054;-67
2023/01/18 22:56:15;;;;;;;1999.90;999.90;;;;;;;1.01;100.00;99960.59;10482446;28;20049;-68
2023/01/18 23:01:26;;;;;;;1999.90;999.90;;;;;;;1.04;100.00;99970.81;10482461;28;20056;-68
2023/01/18 23:06:40;;;;;;;1999.90;999.90;;;;;;;1.13;100.00;99969.69;10499098;28;20044;-68
2023/01/18 23:11:44;;;;;;;1999.90;999.90;;;;;;;1.07;100.00;99962.97;10483517;28;20052;-68
2023/01/18 23:22:07;;;;;;;1999.90;999.90;;;;;;;1.16;100.00;99976.47;10483021;28;20117;-68
2023/01/18 23:27:10;;;;;;;1999.90;999.90;;;;;;;1.26;100.00;99981.28;10479660;28;20498;-68